Time;durP1;ratioP1;P1;durP2;ratioP2;P2;SDS_P1;SDS_P2;PMS_P1;PMS_P2;Temp;Humidity;BMP_temperature;BMP_pressure;BME280_temperature;BME280_humidity;BME280_pressure;Samples;Min_cycle;Max_cycle;Signal;HPM_P1;HPM_P2
2022/05/27 00:03:45;;;;;;;16.70;7.60;;;14.60;99.90;;;;;;12152012;29;20060;-80
2022/05/27 00:09:47;;;;;;;14.43;7.50;;;14.70;99.90;;;;;;12156763;29;20099;-81
2022/05/27 00:15:49;;;;;;;13.85;7.93;;;14.60;99.90;;;;;;12163524;29;20087;-82
2022/05/27 00:21:51;;;;;;;14.85;8.25;;;14.50;99.90;;;;;;12151744;29;20052;-81
2022/05/27 00:27:53;;;;;;;10.52;8.13;;;14.40;99.90;;;;;;12143308;29;20131;-82
2022/05/27 00:33:55;;;;;;;15.77;8.32;;;14.30;99.90;;;;;;12145440;29;20123;-81
2022/05/27 00:39:57;;;;;;;11.38;8.38;;;14.20;99.90;;;;;;12157215;29;20064;-81
2022/05/27 00:46:13;;;;;;;12.88;7.78;;;14.20;99.90;;;;;;12159614;29;20111;-81
2022/05/27 00:52:20;;;;;;;10.25;8.07;;;14.20;99.90;;;;;;12147825;29;20529;-84
2022/05/27 00:58:32;;;;;;;11.85;7.63;;;14.10;99.90;;;;;;12162600;29;20123;-81
2022/05/27 01:04:35;;;;;;;12.70;7.57;;;14.20;99.90;;;;;;12155855;29;20064;-79
2022/05/27 01:10:55;;;;;;;11.70;7.43;;;14.10;99.90;;;;;;12143569;29;20091;-80
2022/05/27 01:17:17;;;;;;;9.57;6.93;;;13.90;99.90;;;;;;12148499;29;20115;-82
2022/05/27 01:23:37;;;;;;;12.05;7.38;;;13.90;99.90;;;;;;12146072;29;20049;-82
2022/05/27 01:29:57;;;;;;;11.70;7.72;;;13.80;99.90;;;;;;12150694;29;20111;-81
2022/05/27 01:36:27;;;;;;;12.05;7.47;;;13.80;99.90;;;;;;12154376;29;20072;-81
2022/05/27 01:42:58;;;;;;;10.90;6.45;;;13.80;99.90;;;;;;12169411;29;20079;-82
2022/05/27 01:49:39;;;;;;;10.85;6.97;;;13.80;99.90;;;;;;12144871;29;20048;-82
2022/05/27 01:55:49;;;;;;;8.10;6.15;;;13.80;99.90;;;;;;12151658;29;20543;-82
2022/05/27 02:02:04;;;;;;;8.70;6.68;;;13.80;99.90;;;;;;12147283;29;20143;-82
2022/05/27 02:08:18;;;;;;;11.80;7.00;;;13.60;99.90;;;;;;12151084;29;20056;-84
2022/05/27 02:14:37;;;;;;;;;;;13.70;99.90;;;;;;12144715;29;20123;-84
2022/05/27 02:20:44;;;;;;;10.82;7.55;;;13.60;99.90;;;;;;12158741;29;19927;-85
2022/05/27 02:26:54;;;;;;;6.13;4.10;;;13.70;99.90;;;;;;12151123;29;20147;-84
2022/05/27 02:39:35;;;;;;;4.10;1.90;;;13.10;99.90;;;;;;12147924;29;20141;-83
2022/05/27 02:45:42;;;;;;;5.80;1.60;;;12.90;99.90;;;;;;12154781;29;20067;-83
2022/05/27 02:52:08;;;;;;;2.53;1.60;;;12.80;99.90;;;;;;12133955;29;20072;-84
2022/05/27 02:58:10;;;;;;;5.63;1.67;;;12.60;99.90;;;;;;12146326;29;20064;-82
2022/05/27 03:04:12;;;;;;;2.55;1.77;;;12.60;99.90;;;;;;12147709;29;20083;-84
2022/05/27 03:10:41;;;;;;;2.83;1.58;;;12.60;99.90;;;;;;12151646;29;20108;-83
2022/05/27 03:16:58;;;;;;;5.03;1.95;;;12.50;99.90;;;;;;12147519;29;20060;-83
2022/05/27 03:23:42;;;;;;;3.67;2.05;;;12.60;99.90;;;;;;12153091;29;20048;-83
2022/05/27 03:30:01;;;;;;;3.47;1.90;;;12.50;99.90;;;;;;12110026;29;20143;-83
2022/05/27 03:36:13;;;;;;;3.83;1.95;;;12.60;99.90;;;;;;12148210;29;20080;-82
2022/05/27 03:42:19;;;;;;;3.58;1.90;;;12.50;99.90;;;;;;12149769;29;20778;-84
2022/05/27 03:48:22;;;;;;;4.72;2.15;;;12.50;99.90;;;;;;12141859;29;20120;-83
2022/05/27 03:54:25;;;;;;;4.32;2.47;;;12.50;99.90;;;;;;12134301;29;20556;-83
2022/05/27 04:00:28;;;;;;;3.88;2.30;;;12.60;99.90;;;;;;12131686;29;20071;-82
2022/05/27 04:06:31;;;;;;;5.40;2.70;;;12.60;99.90;;;;;;12124872;29;20048;-82
2022/05/27 04:12:32;;;;;;;6.53;2.28;;;12.60;99.90;;;;;;12142568;29;20071;-83
2022/05/27 04:18:34;;;;;;;5.55;2.90;;;12.60;99.90;;;;;;12142605;29;20071;-82
2022/05/27 04:24:36;;;;;;;3.85;2.45;;;12.60;99.90;;;;;;12143800;29;20048;-83
2022/05/27 04:30:38;;;;;;;5.30;2.63;;;12.70;99.90;;;;;;12127182;29;20048;-81
2022/05/27 04:36:40;;;;;;;6.10;3.45;;;12.60;99.90;;;;;;12145325;29;20076;-82
2022/05/27 04:42:42;;;;;;;5.60;3.30;;;12.60;99.90;;;;;;12144430;29;20089;-83
2022/05/27 04:48:43;;;;;;;6.45;3.80;;;12.50;99.90;;;;;;12156757;29;20056;-84
2022/05/27 04:54:45;;;;;;;6.78;3.40;;;12.70;99.90;;;;;;12156795;29;20153;-84
2022/05/27 05:00:48;;;;;;;10.07;3.92;;;12.60;99.90;;;;;;12146296;29;20117;-84
2022/05/27 05:06:50;;;;;;;8.20;4.10;;;12.80;99.90;;;;;;12144660;29;20064;-84
2022/05/27 05:12:52;;;;;;;5.68;3.67;;;12.70;99.90;;;;;;12143489;29;20143;-84
2022/05/27 05:18:54;;;;;;;9.48;4.32;;;12.90;99.90;;;;;;12148126;29;20099;-83
2022/05/27 05:24:56;;;;;;;11.25;4.80;;;12.80;99.90;;;;;;12143313;29;20447;-83
2022/05/27 05:30:59;;;;;;;10.75;4.30;;;12.80;99.90;;;;;;12147692;29;20429;-83
2022/05/27 05:37:04;;;;;;;9.02;4.68;;;12.90;99.90;;;;;;12137997;29;20071;-82
2022/05/27 05:43:06;;;;;;;8.73;4.28;;;12.90;99.90;;;;;;12143105;29;20513;-83
2022/05/27 05:49:08;;;;;;;8.00;4.53;;;12.90;99.90;;;;;;12147233;29;20126;-82
2022/05/27 05:55:12;;;;;;;9.88;4.78;;;12.90;99.90;;;;;;12141601;29;20064;-82
2022/05/27 06:01:14;;;;;;;10.15;4.13;;;13.00;99.90;;;;;;12142536;29;20056;-83
2022/05/27 06:07:16;;;;;;;7.22;3.88;;;13.10;99.90;;;;;;12151425;29;20156;-83
2022/05/27 06:13:18;;;;;;;10.43;3.90;;;13.30;99.90;;;;;;12124940;29;20115;-82
2022/05/27 06:19:20;;;;;;;8.88;3.60;;;13.20;99.90;;;;;;12184725;29;20033;-81
2022/05/27 06:25:22;;;;;;;8.90;3.80;;;13.10;99.90;;;;;;12159064;29;20638;-81
2022/05/27 06:37:45;;;;;;;10.52;3.35;;;13.20;99.90;;;;;;12172911;29;20062;-83
2022/05/27 06:43:47;;;;;;;8.70;2.92;;;13.10;99.90;;;;;;12139441;29;20055;-83
2022/05/27 06:49:48;;;;;;;8.65;3.22;;;13.10;99.90;;;;;;12144363;29;20167;-82
2022/05/27 06:55:52;;;;;;;7.88;2.50;;;13.40;99.90;;;;;;12127392;29;20052;-82
2022/05/27 07:01:56;;;;;;;7.63;2.72;;;13.40;99.90;;;;;;12126630;29;20592;-82
2022/05/27 07:07:58;;;;;;;9.48;2.83;;;13.30;99.90;;;;;;12127272;29;20224;-83
2022/05/27 07:14:00;;;;;;;8.73;2.40;;;13.50;99.90;;;;;;12141602;29;20136;-82
2022/05/27 07:20:04;;;;;;;10.80;2.50;;;13.40;99.90;;;;;;12144741;29;20075;-82
2022/05/27 07:26:06;;;;;;;10.47;2.07;;;13.60;99.90;;;;;;12133053;29;20560;-83
2022/05/27 07:32:08;;;;;;;9.68;2.33;;;13.60;99.90;;;;;;12143864;29;20055;-81
2022/05/27 07:38:10;;;;;;;8.23;2.30;;;13.70;99.90;;;;;;12153887;29;20060;-80
2022/05/27 07:44:11;;;;;;;11.35;2.38;;;13.60;99.90;;;;;;12139997;29;20224;-82
2022/05/27 07:50:13;;;;;;;10.43;2.83;;;13.60;99.90;;;;;;12148882;29;20147;-81
2022/05/27 07:56:15;;;;;;;10.20;2.20;;;13.80;99.90;;;;;;12148428;29;20061;-81
2022/05/27 08:02:17;;;;;;;10.35;2.08;;;14.00;99.90;;;;;;12133769;29;20139;-81
2022/05/27 08:08:19;;;;;;;7.15;1.85;;;14.20;99.90;;;;;;12127604;29;20500;-82
2022/05/27 08:14:21;;;;;;;9.82;1.95;;;14.00;99.90;;;;;;12138921;29;20079;-81
2022/05/27 08:20:27;;;;;;;6.88;1.58;;;14.10;99.90;;;;;;12142846;29;20078;-81
2022/05/27 08:26:29;;;;;;;10.43;2.55;;;14.20;99.90;;;;;;12129048;29;20648;-80
2022/05/27 08:32:31;;;;;;;7.68;1.70;;;14.30;99.90;;;;;;12142525;29;20056;-79
2022/05/27 08:38:34;;;;;;;7.38;2.08;;;14.40;99.90;;;;;;12145547;29;20074;-79
2022/05/27 08:44:59;;;;;;;5.65;1.83;;;14.60;99.90;;;;;;12141190;29;20519;-80
2022/05/27 08:51:09;;;;;;;10.77;1.70;;;14.90;99.90;;;;;;12132227;29;20147;-79
2022/05/27 09:03:45;;;;;;;7.50;1.85;;;14.70;99.90;;;;;;12145401;29;20048;-80
2022/05/27 09:09:47;;;;;;;6.13;1.52;;;15.00;99.90;;;;;;12116157;29;20122;-80
2022/05/27 09:16:01;;;;;;;6.25;1.73;;;15.30;99.90;;;;;;12132387;29;20053;-80
2022/05/27 09:22:12;;;;;;;7.70;1.80;;;15.10;99.90;;;;;;12123786;29;20060;-81
2022/05/27 09:28:50;;;;;;;8.25;1.60;;;15.10;99.90;;;;;;12144887;29;20528;-80
2022/05/27 09:34:56;;;;;;;8.48;1.55;;;15.50;99.90;;;;;;12146538;29;20080;-81
2022/05/27 09:41:04;;;;;;;6.78;1.75;;;15.70;99.90;;;;;;12143225;29;20062;-79
2022/05/27 09:47:06;;;;;;;8.55;1.70;;;15.70;99.90;;;;;;12155607;29;20071;-79
2022/05/27 09:53:14;;;;;;;8.07;1.52;;;15.70;99.90;;;;;;12129700;29;20109;-81
2022/05/27 09:59:35;;;;;;;7.30;1.70;;;15.40;99.90;;;;;;12140207;29;20052;-80
2022/05/27 10:05:36;;;;;;;7.78;1.70;;;15.60;99.90;;;;;;12139835;29;20059;-81
2022/05/27 10:11:50;;;;;;;9.77;1.83;;;15.80;99.90;;;;;;12138775;29;20060;-81
2022/05/27 10:17:52;;;;;;;11.30;1.70;;;16.00;99.90;;;;;;12133792;29;20079;-81
2022/05/27 10:24:20;;;;;;;7.50;1.48;;;15.80;99.90;;;;;;12127142;29;20334;-81
2022/05/27 10:30:27;;;;;;;6.60;1.83;;;15.70;99.90;;;;;;12138500;29;20075;-82
2022/05/27 10:37:03;;;;;;;11.27;1.65;;;15.80;99.90;;;;;;12128890;29;20067;-80
2022/05/27 10:43:26;;;;;;;7.47;1.90;;;15.70;99.90;;;;;;12140921;29;20064;-79
2022/05/27 10:50:00;;;;;;;8.43;1.73;;;15.70;99.90;;;;;;12134098;29;20334;-81
2022/05/27 10:56:34;;;;;;;10.30;1.70;;;15.60;99.90;;;;;;12131197;29;20179;-79
2022/05/27 11:03:02;;;;;;;7.47;1.77;;;16.20;99.90;;;;;;12128967;29;20367;-80
2022/05/27 11:09:43;;;;;;;12.75;2.53;;;16.50;99.90;;;;;;12132962;29;20405;-82
2022/05/27 11:16:23;;;;;;;9.43;1.85;;;16.90;99.90;;;;;;12122576;29;20261;-81
2022/05/27 11:23:10;;;;;;;8.23;1.75;;;16.90;99.90;;;;;;12119203;29;20969;-81
2022/05/27 11:29:34;;;;;;;10.85;1.90;;;16.50;99.90;;;;;;12113059;29;20065;-79
2022/05/27 11:36:00;;;;;;;7.10;1.95;;;16.40;99.90;;;;;;12135784;29;20100;-82
2022/05/27 11:42:24;;;;;;;10.68;1.88;;;16.70;99.90;;;;;;12135683;29;20547;-82
2022/05/27 11:48:57;;;;;;;11.90;1.90;;;16.80;99.90;;;;;;12141240;29;20060;-78
2022/05/27 11:55:24;;;;;;;9.20;1.63;;;16.80;99.90;;;;;;12147217;29;20103;-80
2022/05/27 12:01:35;;;;;;;8.20;1.85;;;16.60;99.90;;;;;;12161192;29;20131;-82
2022/05/27 12:07:46;;;;;;;6.18;1.80;;;16.60;99.90;;;;;;12166638;29;20056;-79
2022/05/27 12:14:02;;;;;;;5.03;1.52;;;16.90;99.90;;;;;;12171928;29;20048;-80
2022/05/27 12:20:06;;;;;;;8.63;1.80;;;16.60;99.90;;;;;;12168016;29;20060;-79
2022/05/27 12:26:08;;;;;;;10.75;1.90;;;16.70;99.90;;;;;;12156598;29;20456;-79
2022/05/27 12:32:14;;;;;;;9.70;1.63;;;16.30;99.90;;;;;;12169910;29;20059;-83
2022/05/27 12:38:27;;;;;;;9.13;1.60;;;16.60;99.90;;;;;;12169850;29;20445;-79
2022/05/27 12:44:29;;;;;;;6.13;1.30;;;16.80;99.90;;;;;;12160578;29;20055;-80
2022/05/27 12:50:37;;;;;;;7.53;1.45;;;16.20;99.90;;;;;;12160055;29;20052;-79
2022/05/27 13:03:02;;;;;;;7.43;1.60;;;16.00;99.90;;;;;;12160569;29;20445;-81
2022/05/27 13:09:09;;;;;;;7.85;1.63;;;16.10;99.90;;;;;;12155541;29;20472;-80
2022/05/27 13:15:33;;;;;;;7.40;1.70;;;16.50;99.90;;;;;;12142952;29;20055;-79
2022/05/27 13:21:48;;;;;;;6.28;1.60;;;16.50;99.90;;;;;;12159042;29;20171;-79
2022/05/27 13:27:54;;;;;;;;;;;16.60;99.90;;;;;;12154655;29;20056;-80
2022/05/27 13:34:28;;;;;;;5.93;1.30;;;16.60;99.90;;;;;;12141248;29;19930;-79
2022/05/27 13:40:33;;;;;;;8.50;1.65;;;16.60;99.90;;;;;;12132551;29;20169;-81
2022/05/27 13:46:41;;;;;;;6.88;1.20;;;16.50;99.90;;;;;;12150333;29;20060;-81
2022/05/27 13:52:43;;;;;;;7.47;1.13;;;16.70;99.90;;;;;;12153510;29;20056;-79
2022/05/27 13:59:00;;;;;;;7.28;1.58;;;16.70;99.90;;;;;;12148757;29;20424;-80
2022/05/27 14:05:27;;;;;;;9.98;1.80;;;16.30;99.90;;;;;;12144913;29;20391;-79
2022/05/27 14:11:31;;;;;;;6.15;1.63;;;16.50;99.90;;;;;;12139996;29;20564;-79
2022/05/27 14:17:45;;;;;;;7.57;1.60;;;16.50;99.90;;;;;;12132779;29;20068;-80
2022/05/27 14:23:49;;;;;;;6.65;1.70;;;16.40;99.90;;;;;;12147103;29;20057;-79
2022/05/27 14:29:56;;;;;;;7.47;1.60;;;16.00;99.90;;;;;;12148313;29;20569;-78
2022/05/27 14:36:00;;;;;;;7.22;1.38;;;15.80;99.90;;;;;;12155544;29;20708;-79
2022/05/27 14:42:02;;;;;;;4.88;1.08;;;15.80;99.90;;;;;;12154999;29;20416;-80
2022/05/27 14:48:26;;;;;;;8.20;1.60;;;15.70;99.90;;;;;;12155900;29;20057;-80
2022/05/27 14:54:37;;;;;;;9.43;1.40;;;15.60;99.90;;;;;;12135047;29;20138;-80
2022/05/27 15:00:52;;;;;;;7.18;1.50;;;15.60;99.90;;;;;;12141990;29;20131;-80
2022/05/27 15:07:16;;;;;;;8.68;1.63;;;15.60;99.90;;;;;;12156465;29;20916;-79
2022/05/27 15:13:27;;;;;;;8.20;1.90;;;15.80;99.90;;;;;;12138711;29;20056;-80
2022/05/27 15:19:43;;;;;;;7.47;1.52;;;15.90;99.90;;;;;;12152915;29;20067;-78
2022/05/27 15:25:47;;;;;;;13.25;1.65;;;15.50;99.90;;;;;;12153552;29;20420;-80
2022/05/27 15:38:11;;;;;;;6.32;1.15;;;15.80;99.90;;;;;;12165967;29;20124;-79
2022/05/27 15:44:13;;;;;;;8.98;1.45;;;16.10;99.90;;;;;;12154646;29;20103;-80
2022/05/27 15:50:17;;;;;;;7.25;1.20;;;15.60;99.90;;;;;;12163292;29;20517;-79
2022/05/27 15:56:19;;;;;;;10.68;1.50;;;15.80;99.90;;;;;;12150347;29;20057;-79
2022/05/27 16:02:22;;;;;;;5.75;1.13;;;15.60;99.90;;;;;;12133733;29;20063;-79
2022/05/27 16:08:24;;;;;;;10.60;1.77;;;15.70;99.90;;;;;;12150448;29;20049;-79
2022/05/27 16:14:26;;;;;;;9.40;1.35;;;15.80;99.90;;;;;;12162955;29;20064;-79
2022/05/27 16:20:40;;;;;;;10.85;1.85;;;15.50;99.90;;;;;;12146011;29;20088;-79
2022/05/27 16:26:42;;;;;;;;;;;15.60;99.90;;;;;;12167168;29;20189;-80
2022/05/27 16:32:45;;;;;;;9.20;1.83;;;15.30;99.90;;;;;;12167793;29;19931;-80
2022/05/27 16:38:47;;;;;;;12.02;1.60;;;14.90;99.90;;;;;;12142867;29;20052;-80
2022/05/27 16:44:49;;;;;;;7.93;1.65;;;14.90;99.90;;;;;;12152180;29;20151;-79
2022/05/27 16:50:51;;;;;;;7.15;1.25;;;14.60;99.90;;;;;;12152362;29;20145;-78
2022/05/27 16:56:53;;;;;;;7.80;1.45;;;14.60;99.90;;;;;;12136357;29;20080;-79
2022/05/27 17:02:56;;;;;;;8.13;1.20;;;14.70;99.90;;;;;;12143728;29;20052;-79
2022/05/27 17:08:57;;;;;;;7.35;1.42;;;14.50;99.90;;;;;;12155241;29;20060;-79
2022/05/27 17:15:00;;;;;;;8.63;1.35;;;14.80;99.90;;;;;;12107874;29;20156;-81
2022/05/27 17:21:02;;;;;;;9.32;1.38;;;14.60;99.90;;;;;;12130726;29;20493;-79
2022/05/27 17:27:05;;;;;;;10.55;1.45;;;14.50;99.90;;;;;;12114568;29;20056;-80
2022/05/27 17:33:07;;;;;;;7.38;1.40;;;14.30;99.90;;;;;;12096868;29;20057;-80
2022/05/27 17:39:10;;;;;;;9.02;1.33;;;14.20;99.90;;;;;;12092427;29;20501;-80
2022/05/27 17:45:13;;;;;;;8.53;1.43;;;14.20;99.90;;;;;;12118894;29;20053;-80
2022/05/27 17:51:21;;;;;;;9.57;1.58;;;13.90;99.90;;;;;;12106792;29;20565;-80
2022/05/27 17:57:23;;;;;;;7.97;1.33;;;13.90;99.90;;;;;;12112679;29;20147;-80
2022/05/27 18:03:26;;;;;;;11.60;1.70;;;13.80;99.90;;;;;;12114039;29;20426;-80
2022/05/27 18:09:27;;;;;;;10.27;1.52;;;13.70;99.90;;;;;;12113579;29;20091;-79
2022/05/27 18:15:29;;;;;;;5.15;1.52;;;13.60;99.90;;;;;;12113171;29;20108;-80
2022/05/27 18:21:32;;;;;;;8.15;1.90;;;13.70;99.90;;;;;;12109108;29;20057;-79
2022/05/27 18:27:33;;;;;;;12.57;1.60;;;13.50;99.90;;;;;;12112076;29;20100;-80
2022/05/27 18:33:35;;;;;;;6.85;1.65;;;13.60;99.90;;;;;;12116947;29;20060;-80
2022/05/27 18:39:37;;;;;;;8.02;1.50;;;13.60;99.90;;;;;;12114753;29;20104;-79
2022/05/27 18:45:39;;;;;;;11.15;1.73;;;13.50;99.90;;;;;;12115322;29;20053;-80
2022/05/27 18:51:41;;;;;;;10.63;1.55;;;13.40;99.90;;;;;;12110685;29;20139;-79
2022/05/27 18:57:42;;;;;;;8.75;1.88;;;13.40;99.90;;;;;;12107227;29;20115;-79
2022/05/27 19:03:45;;;;;;;7.38;1.60;;;13.30;99.90;;;;;;12100330;29;20080;-78
2022/05/27 19:09:46;;;;;;;6.75;1.45;;;13.20;99.90;;;;;;12076411;29;20494;-79
2022/05/27 19:15:49;;;;;;;11.23;1.90;;;13.10;99.90;;;;;;12111213;29;20067;-80
2022/05/27 19:21:51;;;;;;;9.10;2.05;;;13.00;99.90;;;;;;12120167;29;20057;-80
2022/05/27 19:27:53;;;;;;;9.95;1.52;;;13.00;99.90;;;;;;12156344;29;20107;-79
2022/05/27 19:33:55;;;;;;;7.53;1.40;;;13.00;99.90;;;;;;12152370;29;20056;-79
2022/05/27 19:39:58;;;;;;;12.98;1.58;;;13.00;99.90;;;;;;12151625;29;20126;-79
2022/05/27 19:46:00;;;;;;;6.60;1.00;;;12.90;99.90;;;;;;12143414;29;20052;-79
2022/05/27 19:52:02;;;;;;;10.30;1.60;;;12.90;99.90;;;;;;12153673;29;20056;-80
2022/05/27 20:11:04;;;;;;;6.32;1.50;;;12.70;99.90;;;;;;12152395;29;20052;-79
2022/05/27 20:17:09;;;;;;;7.07;1.98;;;12.70;99.90;;;;;;12142924;29;20539;-79
2022/05/27 20:23:12;;;;;;;10.23;2.00;;;12.60;99.90;;;;;;12159896;29;20465;-80
2022/05/27 20:29:15;;;;;;;6.55;1.30;;;12.50;99.90;;;;;;12161979;29;20072;-78
2022/05/27 20:35:17;;;;;;;7.55;1.38;;;12.50;99.90;;;;;;12164400;29;20131;-79
2022/05/27 20:41:19;;;;;;;10.02;1.60;;;12.50;99.90;;;;;;12164666;29;20060;-80
2022/05/27 20:47:23;;;;;;;8.50;1.50;;;12.40;99.90;;;;;;12147248;29;20146;-79
2022/05/27 20:53:25;;;;;;;11.30;1.60;;;12.30;99.90;;;;;;12163868;29;20056;-80
2022/05/27 20:59:29;;;;;;;4.50;1.10;;;12.30;99.90;;;;;;12159849;29;20384;-80
2022/05/27 21:05:31;;;;;;;9.43;1.43;;;12.20;99.90;;;;;;12167099;29;20052;-79
2022/05/27 21:11:40;;;;;;;8.35;1.65;;;12.20;99.90;;;;;;12160881;29;20395;-79
2022/05/27 21:17:42;;;;;;;7.85;1.35;;;12.10;99.90;;;;;;12162306;29;20139;-80
2022/05/27 21:23:44;;;;;;;8.98;1.45;;;12.00;99.90;;;;;;12163029;29;20077;-79
2022/05/27 21:29:46;;;;;;;7.05;1.52;;;12.10;99.90;;;;;;12151881;29;20120;-80
2022/05/27 21:35:47;;;;;;;9.55;1.73;;;11.90;99.90;;;;;;12160216;29;20051;-80
2022/05/27 21:41:50;;;;;;;9.20;2.03;;;11.90;99.90;;;;;;12161015;29;20064;-79
2022/05/27 21:47:51;;;;;;;5.53;1.10;;;11.90;99.90;;;;;;12163134;29;20071;-80
2022/05/27 21:53:54;;;;;;;6.70;1.17;;;11.90;99.90;;;;;;12159337;29;20637;-79
2022/05/27 21:59:56;;;;;;;9.65;1.40;;;11.70;99.90;;;;;;12151819;29;20958;-79
2022/05/27 22:05:58;;;;;;;4.55;1.15;;;11.80;99.90;;;;;;12157501;29;20052;-81
2022/05/27 22:18:24;;;;;;;8.10;1.48;;;11.60;99.90;;;;;;12161583;29;20099;-82
2022/05/27 22:24:25;;;;;;;7.93;1.40;;;11.40;99.90;;;;;;12164780;29;20063;-82
2022/05/27 22:30:27;;;;;;;7.65;1.40;;;11.40;99.90;;;;;;12155359;29;20056;-83
2022/05/27 22:36:29;;;;;;;9.18;1.77;;;11.40;99.90;;;;;;12160386;29;20064;-81
2022/05/27 22:42:31;;;;;;;9.07;1.55;;;11.50;99.90;;;;;;12152513;29;20111;-81
2022/05/27 22:48:33;;;;;;;11.32;1.48;;;11.30;99.90;;;;;;12152849;29;20057;-85
2022/05/27 22:54:35;;;;;;;8.98;1.75;;;11.20;99.90;;;;;;12141140;29;20583;-81
2022/05/27 23:00:37;;;;;;;8.57;1.63;;;11.30;99.90;;;;;;12179326;29;20531;-82
2022/05/27 23:06:38;;;;;;;6.18;1.30;;;11.30;99.90;;;;;;12155543;29;20139;-81
2022/05/27 23:19:04;;;;;;;10.03;1.53;;;11.10;99.90;;;;;;12158252;29;20067;-82
2022/05/27 23:25:06;;;;;;;15.77;2.17;;;11.20;99.90;;;;;;12144782;29;20115;-82
2022/05/27 23:31:10;;;;;;;12.05;1.95;;;11.40;99.90;;;;;;12161067;29;20060;-81
2022/05/27 23:37:13;;;;;;;5.70;1.20;;;11.30;99.90;;;;;;12149993;29;20072;-81
2022/05/27 23:43:15;;;;;;;11.07;1.50;;;11.10;99.90;;;;;;12159232;29;20076;-81
2022/05/27 23:49:17;;;;;;;8.20;1.50;;;11.10;99.90;;;;;;12156765;29;20068;-82
2022/05/27 23:55:19;;;;;;;9.27;1.77;;;10.90;99.90;;;;;;12165786;29;20056;-82
